Time;durP1;ratioP1;P1;durP2;ratioP2;P2;SDS_P1;SDS_P2;PMS_P1;PMS_P2;Temp;Humidity;BMP_temperature;BMP_pressure;BME280_temperature;BME280_humidity;BME280_pressure;Samples;Min_cycle;Max_cycle;Signal;HPM_P1;HPM_P2
2022/04/06 00:02:16;;;;;;;;;;;8.40;99.90;;;;;;5095480;28;20404;-81
2022/04/06 00:05:00;;;;;;;31.38;12.80;;;8.40;99.90;;;;;;5095125;28;19955;-81
2022/04/06 00:07:45;;;;;;;29.70;13.23;;;;;;;;;;5113333;27;20106;-81
2022/04/06 00:10:31;;;;;;;28.98;14.05;;;;;;;;;;5075185;28;20571;-81
2022/04/06 00:13:15;;;;;;;33.03;13.60;;;;;;;;;;5102293;28;20050;-81
2022/04/06 00:16:00;;;;;;;32.78;12.15;;;;;;;;;;5073547;28;20099;-81
2022/04/06 00:18:44;;;;;;;26.98;12.65;;;;;;;;;;5102823;28;20055;-81
2022/04/06 00:21:29;;;;;;;34.08;12.57;;;;;;;;;;5104867;28;20539;-81
2022/04/06 00:24:13;;;;;;;33.80;12.63;;;8.40;99.90;;;;;;5094663;28;20400;-81
2022/04/06 00:26:57;;;;;;;;;;;8.40;99.90;;;;;;5093887;28;20553;-82
2022/04/06 00:29:42;;;;;;;33.80;14.32;;;;;;;;;;5094132;28;19978;-81
2022/04/06 00:32:27;;;;;;;33.47;13.48;;;;;;;;;;5074837;28;20128;-82
2022/04/06 00:35:29;;;;;;;36.42;13.05;;;;;;;;;;5101908;28;20040;-81
2022/04/06 00:38:14;;;;;;;39.95;14.45;;;;;;;;;;5073245;28;20087;-81
2022/04/06 00:40:59;;;;;;;36.80;13.25;;;;;;;;;;5102262;28;20055;-82
2022/04/06 00:43:43;;;;;;;33.10;11.45;;;;;;;;;;5102232;28;20044;-81
2022/04/06 00:46:28;;;;;;;31.02;11.93;;;;;;;;;;5089668;28;20043;-81
2022/04/06 00:49:14;;;;;;;29.30;11.18;;;8.50;99.90;;;;;;5092856;28;20043;-81
2022/04/06 00:52:04;;;;;;;34.55;10.45;;;8.50;99.90;;;;;;5093421;28;20047;-82
2022/04/06 00:54:49;;;;;;;35.25;12.55;;;8.50;99.90;;;;;;5093510;28;20035;-81
2022/04/06 00:57:35;;;;;;;27.80;11.10;;;8.50;99.90;;;;;;5093012;28;20059;-81
2022/04/06 01:00:19;;;;;;;26.60;10.13;;;8.50;99.90;;;;;;5092933;28;20094;-81
2022/04/06 01:03:03;;;;;;;29.73;10.27;;;9.10;99.90;;;;;;5092580;28;20503;-82
2022/04/06 01:05:48;;;;;;;24.50;9.73;;;8.40;99.90;;;;;;5078676;28;20097;-81
2022/04/06 01:08:32;;;;;;;;;;;8.50;99.90;;;;;;5094566;28;20047;-81
2022/04/06 01:11:16;;;;;;;24.08;9.48;;;8.40;99.90;;;;;;5078223;28;20280;-81
2022/04/06 01:14:02;;;;;;;21.73;9.43;;;8.50;99.90;;;;;;5093932;28;20039;-81
2022/04/06 01:17:04;;;;;;;26.90;10.45;;;8.60;99.90;;;;;;5093008;28;20105;-81
2022/04/06 01:19:51;;;;;;;26.38;9.57;;;;;;;;;;5093062;28;20100;-81
2022/04/06 01:22:36;;;;;;;26.30;9.05;;;;;;;;;;5093728;28;20063;-81
2022/04/06 01:25:21;;;;;;;24.70;9.32;;;;;;;;;;5072253;28;20043;-81
2022/04/06 01:28:07;;;;;;;21.10;8.07;;;8.70;99.90;;;;;;5073312;28;20043;-82
2022/04/06 01:30:51;;;;;;;28.00;8.25;;;8.50;99.90;;;;;;5072736;28;20518;-81
2022/04/06 01:33:35;;;;;;;;;;;8.70;99.90;;;;;;5104943;28;20503;-81
2022/04/06 01:36:19;;;;;;;30.80;10.07;;;8.20;99.90;;;;;;5077812;28;19988;-81
2022/04/06 01:39:04;;;;;;;19.77;8.93;;;8.70;99.90;;;;;;5093877;28;20038;-81
2022/04/06 01:41:48;;;;;;;23.05;9.45;;;8.90;99.90;;;;;;5093516;28;20040;-81
2022/04/06 01:44:33;;;;;;;24.05;8.90;;;9.00;99.90;;;;;;5077967;28;20090;-81
2022/04/06 01:47:19;;;;;;;21.48;8.93;;;8.70;99.90;;;;;;5093015;28;20106;-81
2022/04/06 01:53:07;;;;;;;24.55;8.88;;;;;;;;;;5093283;28;20457;-82
2022/04/06 01:55:52;;;;;;;29.45;9.32;;;;;;;;;;5092650;28;20046;-85
2022/04/06 01:58:36;;;;;;;19.73;9.63;;;;;;;;;;5092938;28;20404;-85
2022/04/06 02:01:21;;;;;;;23.45;8.70;;;;;;;;;;5091842;28;20101;-85
2022/04/06 02:04:15;;;;;;;19.73;7.80;;;8.80;99.90;;;;;;5078466;28;20116;-85
2022/04/06 02:07:00;;;;;;;;;;;8.80;99.90;;;;;;5094259;28;20066;-85
2022/04/06 02:09:45;;;;;;;20.08;7.45;;;;;;;;;;5092791;28;19950;-85
2022/04/06 02:12:30;;;;;;;18.80;7.95;;;;;;;;;;5092365;28;20093;-85
2022/04/06 02:15:15;;;;;;;15.07;7.00;;;8.80;99.90;;;;;;5092206;28;20570;-85
2022/04/06 02:18:00;;;;;;;15.20;7.38;;;8.80;99.90;;;;;;5078062;28;20070;-85
2022/04/06 02:20:45;;;;;;;18.48;6.70;;;;;;;;;;5078340;28;20090;-85
2022/04/06 02:23:29;;;;;;;13.85;6.40;;;;;;;;;;5092012;28;20043;-85
2022/04/06 02:26:14;;;;;;;15.10;5.50;;;;;;;;;;5092966;28;20113;-87
2022/04/06 02:29:01;;;;;;;19.27;6.60;;;;;;;;;;5078124;28;20082;-85
2022/04/06 02:31:46;;;;;;;17.55;5.15;;;;;;;;;;5093465;28;20104;-85
2022/04/06 02:34:30;;;;;;;15.60;5.85;;;;;;;;;;5091900;28;20039;-85
2022/04/06 02:37:15;;;;;;;18.42;5.70;;;;;;;;;;5091908;28;20078;-86
2022/04/06 02:39:59;;;;;;;17.98;5.38;;;;;;;;;;5092324;28;20093;-86
2022/04/06 02:42:44;;;;;;;16.63;5.80;;;;;;;;;;5093392;28;20035;-85
2022/04/06 02:45:29;;;;;;;11.43;4.97;;;;;;;;;;5092819;28;20030;-84
2022/04/06 02:48:13;;;;;;;14.15;4.90;;;;;;;;;;5091987;28;20408;-91
2022/04/06 02:50:58;;;;;;;13.07;5.43;;;8.90;99.90;;;;;;5091989;28;20097;-85
2022/04/06 02:53:43;;;;;;;22.98;6.28;;;;;;;;;;5077752;28;20039;-85
2022/04/06 02:56:28;;;;;;;10.98;4.32;;;;;;;;;;5091092;28;20038;-88
2022/04/06 02:59:12;;;;;;;14.82;4.40;;;;;;;;;;5092823;28;20434;-85
2022/04/06 03:01:56;;;;;;;11.75;5.05;;;8.90;99.90;;;;;;5077430;28;20054;-85
2022/04/06 03:04:41;;;;;;;18.25;4.93;;;;;;;;;;5091682;28;20051;-85
2022/04/06 03:07:25;;;;;;;14.05;5.50;;;;;;;;;;5077446;28;20046;-85
2022/04/06 03:10:10;;;;;;;18.13;4.35;;;;;;;;;;5092867;28;20039;-85
2022/04/06 03:12:55;;;;;;;10.55;4.40;;;;;;;;;;5094077;28;20039;-85
2022/04/06 03:15:39;;;;;;;16.05;4.90;;;;;;;;;;5095729;28;20084;-85
2022/04/06 03:18:24;;;;;;;13.15;4.88;;;;;;;;;;5081297;28;20082;-85
2022/04/06 03:21:08;;;;;;;16.45;4.38;;;;;;;;;;5096111;28;20038;-85
2022/04/06 03:23:53;;;;;;;20.67;5.82;;;;;;;;;;5096927;28;20116;-85
2022/04/06 03:26:38;;;;;;;17.33;5.25;;;;;;;;;;5095527;28;20043;-85
2022/04/06 03:29:22;;;;;;;15.85;5.55;;;;;;;;;;5096523;28;20047;-85
2022/04/06 03:32:08;;;;;;;23.55;5.78;;;8.60;99.90;;;;;;5097000;28;20039;-86
2022/04/06 03:34:52;;;;;;;17.17;5.60;;;8.80;99.90;;;;;;5081545;28;20092;-86
2022/04/06 03:37:36;;;;;;;17.05;6.05;;;;;;;;;;5095533;28;20446;-85
2022/04/06 03:40:21;;;;;;;20.65;6.30;;;;;;;;;;5081285;28;20082;-91
2022/04/06 03:43:05;;;;;;;19.70;6.25;;;;;;;;;;5095612;28;20038;-85
2022/04/06 03:45:50;;;;;;;23.67;6.85;;;;;;;;;;5095622;28;20392;-84
2022/04/06 03:48:35;;;;;;;13.52;5.95;;;;;;;;;;5095241;28;20043;-86
2022/04/06 03:51:20;;;;;;;19.42;7.07;;;;;;;;;;5095565;28;20035;-85
2022/04/06 03:54:04;;;;;;;25.42;7.72;;;;;;;;;;5096429;28;20030;-85
2022/04/06 03:56:49;;;;;;;21.17;9.00;;;;;;;;;;5080885;28;20093;-85
2022/04/06 03:59:33;;;;;;;19.55;7.93;;;;;;;;;;5095182;28;20092;-86
2022/04/06 04:02:18;;;;;;;22.77;8.52;;;;;;;;;;5096327;28;20101;-85
2022/04/06 04:05:03;;;;;;;20.65;8.95;;;8.70;99.90;;;;;;5095244;28;20040;-84
2022/04/06 04:07:47;;;;;;;20.88;9.98;;;;;;;;;;5094830;28;20101;-85
2022/04/06 04:10:32;;;;;;;23.95;9.43;;;;;;;;;;5080642;28;20086;-85
2022/04/06 04:13:16;;;;;;;32.25;10.27;;;;;;;;;;5094992;28;20035;-85
2022/04/06 04:16:01;;;;;;;21.08;9.68;;;;;;;;;;5095287;28;20051;-85
2022/04/06 04:18:45;;;;;;;26.63;10.80;;;;;;;;;;5094394;28;20039;-85
2022/04/06 04:21:33;;;;;;;22.85;9.70;;;;;;;;;;5094694;28;20094;-85
2022/04/06 04:24:17;;;;;;;25.75;10.43;;;;;;;;;;5080269;28;20043;-85
2022/04/06 04:27:02;;;;;;;30.73;9.50;;;;;;;;;;5094927;28;20097;-86
2022/04/06 04:29:47;;;;;;;24.25;10.30;;;;;;;;;;5080320;28;20039;-85
2022/04/06 04:32:31;;;;;;;24.95;8.48;;;;;;;;;;5080201;28;20161;-85
2022/04/06 04:35:16;;;;;;;29.70;8.93;;;;;;;;;;5094635;28;20129;-84
2022/04/06 04:38:01;;;;;;;26.55;8.63;;;;;;;;;;5080444;28;20399;-85
2022/04/06 04:40:45;;;;;;;25.98;8.80;;;;;;;;;;5093867;28;20092;-85
2022/04/06 04:43:29;;;;;;;22.38;8.98;;;;;;;;;;5080159;28;20441;-88
2022/04/06 04:46:14;;;;;;;18.83;7.85;;;;;;;;;;5094395;28;20043;-85
2022/04/06 04:48:58;;;;;;;21.83;8.55;;;;;;;;;;5094564;28;20118;-85
2022/04/06 04:51:43;;;;;;;22.48;7.78;;;;;;;;;;5093987;28;20055;-88
2022/04/06 04:54:28;;;;;;;22.52;7.15;;;;;;;;;;5094338;28;20125;-85
2022/04/06 04:57:12;;;;;;;21.60;7.22;;;;;;;;;;5095005;28;20058;-85
2022/04/06 04:59:56;;;;;;;23.13;7.28;;;;;;;;;;5095176;28;20051;-86
2022/04/06 05:02:41;;;;;;;20.92;6.43;;;;;;;;;;5079621;28;20047;-85
2022/04/06 05:05:26;;;;;;;19.98;6.13;;;;;;;;;;5093894;28;20034;-85
2022/04/06 05:08:10;;;;;;;21.92;6.43;;;;;;;;;;5094025;28;20042;-85
2022/04/06 05:10:55;;;;;;;18.10;5.20;;;;;;;;;;5093512;28;20081;-84
2022/04/06 05:13:40;;;;;;;19.83;5.82;;;;;;;;;;5079307;28;20081;-85
2022/04/06 05:16:24;;;;;;;17.85;5.70;;;;;;;;;;5093653;28;20043;-84
2022/04/06 05:19:09;;;;;;;18.17;6.03;;;;;;;;;;5094926;28;20082;-84
2022/04/06 05:21:53;;;;;;;16.70;6.32;;;;;;;;;;5094380;28;20035;-84
2022/04/06 05:24:38;;;;;;;17.90;4.93;;;;;;;;;;5094368;28;20058;-85
2022/04/06 05:27:22;;;;;;;17.38;5.28;;;;;;;;;;5093489;28;20150;-85
2022/04/06 05:30:07;;;;;;;22.30;5.93;;;8.10;99.90;;;;;;5094512;28;20434;-85
2022/04/06 05:32:54;;;;;;;17.75;4.88;;;8.20;99.90;;;;;;5078947;28;20499;-85
2022/04/06 05:35:38;;;;;;;18.23;5.72;;;;;;;;;;5092886;28;20391;-85
2022/04/06 05:38:23;;;;;;;17.13;4.75;;;;;;;;;;5093935;28;20043;-85
2022/04/06 05:41:07;;;;;;;19.77;4.93;;;;;;;;;;5093251;28;20086;-86
2022/04/06 05:43:52;;;;;;;17.02;4.50;;;;;;;;;;5078641;28;20079;-85
2022/04/06 05:46:37;;;;;;;16.67;4.07;;;;;;;;;;5094125;28;20086;-90
2022/04/06 05:49:21;;;;;;;12.63;4.35;;;;;;;;;;5093085;28;20046;-86
2022/04/06 05:52:06;;;;;;;15.15;3.70;;;8.20;99.90;;;;;;5094033;28;20529;-86
2022/04/06 05:54:51;;;;;;;12.75;3.88;;;;;;;;;;5078353;28;20082;-84
2022/04/06 05:57:35;;;;;;;14.57;4.25;;;;;;;;;;5094045;28;20062;-84
2022/04/06 06:00:20;;;;;;;19.08;5.18;;;;;;;;;;5093900;28;20074;-84
2022/04/06 06:03:05;;;;;;;11.63;4.25;;;;;;;;;;5093958;28;20375;-84
2022/04/06 06:05:49;;;;;;;16.70;3.72;;;;;;;;;;5092582;28;20043;-85
2022/04/06 06:08:34;;;;;;;18.98;4.30;;;;;;;;;;5078571;28;20093;-86
2022/04/06 06:11:18;;;;;;;8.85;3.53;;;;;;;;;;5092614;28;20039;-86
2022/04/06 06:14:06;;;;;;;16.15;4.00;;;;;;;;;;5092156;28;20039;-85
2022/04/06 06:16:51;;;;;;;17.08;3.80;;;;;;;;;;5093314;28;20096;-84
2022/04/06 06:19:35;;;;;;;13.98;3.75;;;;;;;;;;5092658;28;20043;-84
2022/04/06 06:22:20;;;;;;;11.73;3.78;;;;;;;;;;5092525;28;20046;-84
2022/04/06 06:25:10;;;;;;;20.65;4.07;;;8.00;99.90;;;;;;5092321;28;20447;-93
2022/04/06 06:27:55;;;;;;;15.50;3.45;;;;;;;;;;5077919;28;20094;-84
2022/04/06 06:30:39;;;;;;;17.90;3.67;;;;;;;;;;5092242;28;20404;-84
2022/04/06 06:33:24;;;;;;;14.05;3.47;;;;;;;;;;5092188;28;20035;-86
2022/04/06 06:36:09;;;;;;;15.85;3.50;;;;;;;;;;5091984;28;20053;-84
2022/04/06 06:38:54;;;;;;;10.23;3.17;;;8.00;99.90;;;;;;5091613;28;20088;-84
2022/04/06 06:41:39;;;;;;;10.98;3.88;;;;;;;;;;5092239;28;20446;-83
2022/04/06 06:44:24;;;;;;;16.95;3.53;;;;;;;;;;5092168;28;20039;-84
2022/04/06 06:47:08;;;;;;;12.80;4.07;;;;;;;;;;5091562;28;20039;-83
2022/04/06 06:49:53;;;;;;;11.40;3.08;;;;;;;;;;5091535;28;20442;-84
2022/04/06 06:52:38;;;;;;;15.80;3.83;;;;;;;;;;5091789;28;20039;-85
2022/04/06 06:55:22;;;;;;;13.93;3.35;;;;;;;;;;5091622;28;20062;-83
2022/04/06 06:58:07;;;;;;;13.65;3.70;;;;;;;;;;5077010;28;20062;-84
2022/04/06 07:00:53;;;;;;;15.95;3.28;;;;;;;;;;5091281;28;20083;-84
2022/04/06 07:03:37;;;;;;;11.38;4.55;;;;;;;;;;5091912;28;20089;-86
2022/04/06 07:06:22;;;;;;;10.90;3.40;;;;;;;;;;5091968;28;20039;-88
2022/04/06 07:09:06;;;;;;;17.83;4.15;;;;;;;;;;5091570;28;20043;-85
2022/04/06 07:11:52;;;;;;;14.63;3.75;;;;;;;;;;5078220;28;20093;-90
2022/04/06 07:14:37;;;;;;;10.48;3.95;;;;;;;;;;5096739;28;20475;-84
2022/04/06 07:17:27;;;;;;;10.45;3.70;;;8.00;99.90;;;;;;5083001;28;20050;-85
2022/04/06 07:20:11;;;;;;;15.93;4.25;;;;;;;;;;5095149;28;20059;-87
2022/04/06 07:22:56;;;;;;;16.20;3.80;;;;;;;;;;5095034;28;20065;-87
2022/04/06 07:25:40;;;;;;;12.45;4.05;;;;;;;;;;5081404;28;20079;-87
2022/04/06 07:28:25;;;;;;;15.20;3.80;;;;;;;;;;5083705;28;20043;-88
2022/04/06 07:31:10;;;;;;;23.25;4.55;;;;;;;;;;5095713;28;20642;-85
2022/04/06 07:33:55;;;;;;;14.30;4.50;;;8.00;99.90;;;;;;5097599;28;20598;-89
2022/04/06 07:36:39;;;;;;;17.60;4.30;;;;;;;;;;5084523;28;20039;-88
2022/04/06 07:39:26;;;;;;;19.70;4.10;;;;;;;;;;5089091;28;20043;-86
2022/04/06 07:42:10;;;;;;;15.00;4.07;;;;;;;;;;5102413;28;20043;-86
2022/04/06 07:44:56;;;;;;;13.93;4.63;;;;;;;;;;5092278;28;20495;-87
2022/04/06 07:47:41;;;;;;;14.50;4.25;;;8.00;99.90;;;;;;5091913;28;20057;-85
2022/04/06 07:50:25;;;;;;;24.02;5.60;;;;;;;;;;5092727;28;20442;-86
2022/04/06 07:53:11;;;;;;;17.60;4.35;;;;;;;;;;5091518;28;20145;-85
2022/04/06 07:55:56;;;;;;;27.13;6.72;;;;;;;;;;5092737;28;20058;-92
2022/04/06 07:58:40;;;;;;;16.63;4.15;;;;;;;;;;5091729;28;20137;-83
2022/04/06 08:01:25;;;;;;;21.65;4.20;;;;;;;;;;5080915;28;20054;-85
2022/04/06 08:04:10;;;;;;;19.85;5.43;;;;;;;;;;5096267;28;20086;-84
2022/04/06 08:06:54;;;;;;;20.95;4.50;;;;;;;;;;5095511;28;20096;-84
2022/04/06 08:09:39;;;;;;;22.60;5.40;;;;;;;;;;5096389;28;20085;-84
2022/04/06 08:12:24;;;;;;;14.68;4.53;;;;;;;;;;5095137;28;20081;-84
2022/04/06 08:15:09;;;;;;;12.75;4.40;;;8.00;99.90;;;;;;5080635;28;20120;-85
2022/04/06 08:17:54;;;;;;;16.52;6.55;;;;;;;;;;5096087;28;20139;-84
2022/04/06 08:20:39;;;;;;;21.13;5.50;;;;;;;;;;5096059;28;20130;-85
2022/04/06 08:23:24;;;;;;;18.30;5.68;;;;;;;;;;5095013;28;20061;-85
2022/04/06 08:26:09;;;;;;;15.98;5.57;;;;;;;;;;5080324;28;20184;-90
2022/04/06 08:28:56;;;;;;;18.63;5.68;;;;;;;;;;5095582;28;20039;-87
2022/04/06 08:31:42;;;;;;;14.55;4.97;;;;;;;;;;5094778;28;20496;-86
2022/04/06 08:34:27;;;;;;;16.35;5.53;;;;;;;;;;5094656;28;20078;-85
2022/04/06 08:37:11;;;;;;;13.15;5.10;;;;;;;;;;5080174;28;20219;-85
2022/04/06 08:39:56;;;;;;;11.82;4.30;;;;;;;;;;5095771;28;20101;-85
2022/04/06 08:42:41;;;;;;;17.67;4.95;;;;;;;;;;5094656;28;20039;-85
2022/04/06 08:45:28;;;;;;;10.30;4.00;;;8.30;99.90;;;;;;5094273;28;20594;-85
2022/04/06 08:48:13;;;;;;;13.15;4.78;;;;;;;;;;5093962;28;20495;-84
2022/04/06 08:51:03;;;;;;;17.55;4.13;;;8.30;99.90;;;;;;5094239;28;20043;-85
2022/04/06 08:53:48;;;;;;;14.45;4.47;;;;;;;;;;5095213;28;20130;-84
2022/04/06 08:56:33;;;;;;;14.52;4.75;;;;;;;;;;5093715;28;20383;-84
2022/04/06 08:59:17;;;;;;;17.13;4.88;;;;;;;;;;5095010;28;20081;-84
2022/04/06 09:02:02;;;;;;;11.85;3.72;;;;;;;;;;5094280;28;20097;-87
2022/04/06 09:04:51;;;;;;;12.00;4.50;;;8.60;99.90;;;;;;5094335;28;20057;-85
2022/04/06 09:07:38;;;;;;;17.38;4.70;;;8.50;99.90;;;;;;5095230;28;20047;-85
2022/04/06 09:10:36;;;;;;;13.40;3.95;;;8.70;99.90;;;;;;5093520;28;20039;-85
2022/04/06 09:13:21;;;;;;;14.45;4.25;;;;;;;;;;5093845;28;20038;-84
2022/04/06 09:16:08;;;;;;;12.15;5.28;;;8.60;99.90;;;;;;5094898;28;20119;-89
2022/04/06 09:18:53;;;;;;;10.95;4.80;;;;;;;;;;5079468;28;20090;-85
2022/04/06 09:21:42;;;;;;;14.05;4.00;;;9.50;99.90;;;;;;5093761;28;20550;-84
2022/04/06 09:24:26;;;;;;;13.38;3.58;;;;;;;;;;5093306;28;20047;-85
2022/04/06 09:27:11;;;;;;;14.80;3.83;;;;;;;;;;5093331;28;20042;-85
2022/04/06 09:29:56;;;;;;;16.33;4.18;;;;;;;;;;5094435;28;20043;-86
2022/04/06 09:32:42;;;;;;;9.77;3.45;;;9.10;99.90;;;;;;5093638;28;20031;-87
2022/04/06 09:35:28;;;;;;;12.90;3.10;;;;;;;;;;5093747;28;20039;-87
2022/04/06 09:38:20;;;;;;;14.75;3.75;;;9.10;99.90;;;;;;5093532;28;20314;-89
2022/04/06 09:41:06;;;;;;;14.88;4.57;;;9.10;99.90;;;;;;5093991;28;20047;-89
2022/04/06 09:43:52;;;;;;;12.70;3.92;;;;;;;;;;5093932;28;20116;-91
2022/04/06 09:49:40;;;;;;;15.45;4.65;;;;;;;;;;5094766;28;20093;-86
2022/04/06 09:52:26;;;;;;;14.82;3.92;;;9.20;99.90;;;;;;5093411;28;20039;-89
2022/04/06 09:55:13;;;;;;;15.30;3.90;;;9.30;99.90;;;;;;5093296;28;20058;-91
2022/04/06 09:57:59;;;;;;;14.30;3.95;;;;;;;;;;5093330;28;20089;-88
2022/04/06 10:00:45;;;;;;;12.73;3.92;;;;;;;;;;5092814;28;20034;-90
2022/04/06 10:03:29;;;;;;;12.30;4.60;;;;;;;;;;5078517;28;20075;-90
2022/04/06 10:06:14;;;;;;;15.45;4.22;;;;;;;;;;5093593;28;20047;-90
2022/04/06 10:09:01;;;;;;;14.98;5.25;;;9.40;99.90;;;;;;5093033;28;20077;-90
2022/04/06 10:11:46;;;;;;;11.45;4.53;;;;;;;;;;5093288;28;20042;-92
2022/04/06 10:14:31;;;;;;;13.70;4.50;;;;;;;;;;5094247;28;20141;-89
2022/04/06 10:17:17;;;;;;;12.25;4.20;;;9.40;99.90;;;;;;5093272;28;20184;-88
2022/04/06 10:20:28;;;;;;;14.75;4.22;;;9.40;99.90;;;;;;5093853;28;20219;-96
2022/04/06 10:23:29;;;;;;;17.77;6.32;;;9.40;99.90;;;;;;5094140;28;20081;-90
2022/04/06 10:26:14;;;;;;;15.90;5.10;;;;;;;;;;5095290;28;20039;-91
2022/04/06 10:28:59;;;;;;;20.40;4.90;;;;;;;;;;5094020;28;20042;-88
2022/04/06 10:31:46;;;;;;;12.27;5.93;;;;;;;;;;5093240;28;20074;-86
2022/04/06 10:34:33;;;;;;;18.55;6.03;;;;;;;;;;5093359;28;20050;-85
2022/04/06 10:37:18;;;;;;;14.75;5.03;;;;;;;;;;5092432;28;20133;-89
2022/04/06 10:40:08;;;;;;;20.38;5.00;;;9.50;99.90;;;;;;5078773;28;20047;-91
2022/04/06 10:42:53;;;;;;;14.48;5.25;;;;;;;;;;5079240;28;20043;-88
2022/04/06 10:45:40;;;;;;;15.18;5.97;;;;;;;;;;5091819;28;20570;-87
2022/04/06 10:48:25;;;;;;;16.38;6.20;;;;;;;;;;5091651;28;20525;-85
2022/04/06 10:51:33;;;;;;;14.27;7.18;;;9.50;99.90;;;;;;5093419;28;20066;-86
2022/04/06 10:54:18;;;;;;;15.10;5.95;;;;;;;;;;5092184;28;20499;-86
2022/04/06 10:57:02;;;;;;;22.05;6.22;;;;;;;;;;5091654;28;20077;-87
2022/04/06 11:00:15;;;;;;;20.50;5.45;;;9.40;99.90;;;;;;5077899;28;20549;-86
2022/04/06 11:03:18;;;;;;;21.75;6.95;;;9.50;99.90;;;;;;5093102;28;20541;-86
2022/04/06 11:06:02;;;;;;;17.00;5.68;;;;;;;;;;5092012;28;20039;-85
2022/04/06 11:12:09;;;;;;;18.30;6.95;;;9.50;99.90;;;;;;5092071;28;20442;-85
2022/04/06 11:14:53;;;;;;;20.70;6.13;;;;;;;;;;5092913;28;20077;-87
2022/04/06 11:17:41;;;;;;;20.55;7.40;;;;;;;;;;5091721;28;20546;-86
2022/04/06 11:20:33;;;;;;;17.13;6.07;;;9.50;99.90;;;;;;5092585;28;20035;-87
2022/04/06 11:23:17;;;;;;;14.73;5.72;;;;;;;;;;5092886;28;20178;-86
2022/04/06 11:26:02;;;;;;;20.70;6.03;;;;;;;;;;5091817;28;20488;-87
2022/04/06 11:28:58;;;;;;;16.45;7.85;;;9.50;99.90;;;;;;5092412;28;20081;-85
2022/04/06 11:31:54;;;;;;;14.95;6.20;;;10.10;99.90;;;;;;5091622;28;20380;-87
2022/04/06 11:35:00;;;;;;;13.35;5.63;;;10.10;99.90;;;;;;5093713;28;20388;-85
2022/04/06 11:37:49;;;;;;;19.02;6.72;;;10.30;99.90;;;;;;5084299;28;20506;-86
2022/04/06 11:40:42;;;;;;;14.73;6.22;;;10.40;99.90;;;;;;5081173;28;20047;-87
2022/04/06 11:43:27;;;;;;;10.77;5.20;;;;;;;;;;5095375;28;20085;-89
2022/04/06 11:46:12;;;;;;;12.68;5.13;;;;;;;;;;5096697;28;20039;-87
2022/04/06 11:48:56;;;;;;;17.33;6.30;;;;;;;;;;5095386;28;20039;-87
2022/04/06 11:51:41;;;;;;;11.50;7.07;;;;;;;;;;5095185;28;20034;-87
2022/04/06 11:54:26;;;;;;;15.00;6.63;;;10.30;99.90;;;;;;5095275;28;20490;-88
2022/04/06 11:57:11;;;;;;;11.73;5.80;;;;;;;;;;5095011;28;20081;-86
2022/04/06 11:59:56;;;;;;;21.92;6.60;;;10.40;99.90;;;;;;5081323;28;20059;-87
2022/04/06 12:02:50;;;;;;;18.42;5.97;;;10.70;99.90;;;;;;5094880;28;20035;-86
2022/04/06 12:05:46;;;;;;;;;;;10.60;99.90;;;;;;5095516;28;20085;-86
2022/04/06 12:08:31;;;;;;;14.00;5.35;;;;;;;;;;5094917;28;19915;-90
2022/04/06 12:11:20;;;;;;;18.90;6.20;;;11.00;99.90;;;;;;5096100;28;20054;-85
2022/04/06 12:14:05;;;;;;;18.00;5.75;;;;;;;;;;5095077;28;20138;-85
2022/04/06 12:16:50;;;;;;;16.67;5.72;;;11.10;99.90;;;;;;5095581;28;20114;-86
2022/04/06 12:19:35;;;;;;;13.93;5.68;;;;;;;;;;5080549;28;20492;-87
2022/04/06 12:22:26;;;;;;;14.73;5.60;;;11.40;99.90;;;;;;5094776;28;20039;-87
2022/04/06 12:25:29;;;;;;;13.43;4.95;;;11.60;99.90;;;;;;5094870;28;20088;-87
2022/04/06 12:28:25;;;;;;;17.52;5.75;;;11.80;99.90;;;;;;5094752;28;20047;-87
2022/04/06 12:31:10;;;;;;;14.68;5.45;;;;;;;;;;5094551;28;20082;-87
2022/04/06 12:33:55;;;;;;;13.10;4.35;;;;;;;;;;5094414;28;20549;-86
2022/04/06 12:36:49;;;;;;;15.63;5.97;;;12.10;99.90;;;;;;5080005;28;20039;-87
2022/04/06 12:39:33;;;;;;;14.35;5.18;;;;;;;;;;5094454;28;20498;-89
2022/04/06 12:42:18;;;;;;;16.55;5.60;;;;;;;;;;5080343;28;20039;-86
2022/04/06 12:45:06;;;;;;;12.93;5.40;;;;;;;;;;5080190;28;20039;-87
2022/04/06 12:47:50;;;;;;;15.73;5.50;;;;;;;;;;5094555;28;20043;-86
2022/04/06 12:50:38;;;;;;;13.57;5.22;;;11.80;99.90;;;;;;5079980;28;20039;-91
2022/04/06 12:53:23;;;;;;;16.33;5.50;;;;;;;;;;5095324;28;20042;-87
2022/04/06 12:56:11;;;;;;;14.02;6.00;;;11.60;99.90;;;;;;5095531;28;20058;-87
2022/04/06 12:59:07;;;;;;;11.18;5.10;;;11.60;99.90;;;;;;5079733;28;20193;-87
2022/04/06 13:01:59;;;;;;;11.77;5.13;;;11.80;99.90;;;;;;5080424;28;20065;-86
2022/04/06 13:04:44;;;;;;;13.38;4.75;;;11.70;99.90;;;;;;5085017;28;20085;-85
2022/04/06 13:07:29;;;;;;;11.25;4.65;;;;;;;;;;5079775;28;20048;-86
2022/04/06 13:10:28;;;;;;;13.40;4.82;;;11.80;99.90;;;;;;5094206;28;20039;-90
2022/04/06 13:13:15;;;;;;;12.43;3.25;;;11.70;99.90;;;;;;5094135;28;20116;-87
2022/04/06 13:16:00;;;;;;;12.25;3.38;;;;;;;;;;5079298;28;20427;-86
2022/04/06 13:18:45;;;;;;;14.30;2.88;;;;;;;;;;5093374;28;20039;-86
2022/04/06 13:21:48;;;;;;;;;;;;;;;;;;;;;
2022/04/06 13:24:39;;;;;;;10.70;3.17;;;11.90;99.90;;;;;;5095092;28;20051;-86
2022/04/06 13:27:24;;;;;;;9.52;2.85;;;;;;;;;;5094112;28;20039;-87
2022/04/06 13:30:15;;;;;;;14.00;3.30;;;12.30;99.90;;;;;;5093744;28;20035;-87
2022/04/06 13:33:01;;;;;;;15.05;3.97;;;;;;;;;;5080431;28;20062;-86
2022/04/06 13:35:49;;;;;;;9.02;3.60;;;;;;;;;;5094527;28;20085;-86
2022/04/06 13:38:35;;;;;;;11.07;4.50;;;12.10;99.90;;;;;;5080081;28;20047;-87
2022/04/06 13:41:20;;;;;;;12.70;4.85;;;;;;;;;;5079302;28;20127;-87
2022/04/06 13:44:15;;;;;;;12.93;4.43;;;11.80;99.90;;;;;;5093155;28;20077;-87
2022/04/06 13:47:00;;;;;;;8.63;3.15;;;;;;;;;;5096022;28;20602;-87
2022/04/06 13:49:45;;;;;;;11.38;3.08;;;;;;;;;;5096170;28;20039;-88
2022/04/06 13:52:30;;;;;;;5.57;2.15;;;;;;;;;;5096492;28;20063;-86
2022/04/06 13:55:21;;;;;;;9.38;2.60;;;;;;;;;;5081721;28;20043;-89
2022/04/06 13:58:06;;;;;;;15.02;3.53;;;;;;;;;;5085978;28;20058;-86
2022/04/06 14:00:52;;;;;;;12.23;3.60;;;;;;;;;;5094984;28;20114;-87
2022/04/06 14:03:39;;;;;;;10.57;3.85;;;11.10;99.90;;;;;;5095681;28;20174;-87
2022/04/06 14:06:24;;;;;;;11.50;3.20;;;;;;;;;;5078791;28;20122;-85
2022/04/06 14:09:10;;;;;;;9.35;2.47;;;10.70;99.90;;;;;;5092528;28;20388;-86
2022/04/06 14:11:56;;;;;;;6.25;2.22;;;;;;;;;;5093562;28;20400;-86
2022/04/06 14:14:41;;;;;;;5.72;2.22;;;;;;;;;;5079318;28;20089;-86
2022/04/06 14:17:34;;;;;;;9.38;2.03;;;10.30;99.90;;;;;;5092505;28;20443;-85
2022/04/06 14:20:19;;;;;;;5.43;1.90;;;;;;;;;;5092667;28;20098;-85
2022/04/06 14:23:03;;;;;;;5.45;2.00;;;;;;;;;;5092046;28;20054;-87
2022/04/06 14:25:48;;;;;;;5.18;2.50;;;;;;;;;;5077692;28;20112;-87
2022/04/06 14:28:38;;;;;;;4.07;1.80;;;10.00;99.90;;;;;;5092163;28;20089;-86
2022/04/06 14:31:25;;;;;;;3.90;1.90;;;;;;;;;;5092337;28;20161;-87
2022/04/06 14:34:11;;;;;;;3.58;2.03;;;9.90;99.90;;;;;;5093078;28;20084;-87
2022/04/06 14:36:58;;;;;;;3.30;2.17;;;;;;;;;;5077763;28;20043;-87
2022/04/06 14:39:43;;;;;;;4.32;2.28;;;;;;;;;;5092455;28;20042;-87
2022/04/06 14:42:27;;;;;;;4.38;2.00;;;;;;;;;;5078191;28;20046;-87
2022/04/06 14:45:13;;;;;;;5.30;2.38;;;8.40;99.90;;;;;;5092319;28;20054;-87
2022/04/06 14:48:00;;;;;;;4.65;2.80;;;;;;;;;;5093678;28;20127;-87
2022/04/06 14:50:45;;;;;;;3.92;2.67;;;;;;;;;;5093286;28;20043;-87
2022/04/06 14:53:30;;;;;;;5.75;2.95;;;;;;;;;;5092292;28;20035;-89
2022/04/06 14:56:14;;;;;;;7.05;3.80;;;;;;;;;;5092123;28;20169;-88
2022/04/06 14:58:59;;;;;;;5.68;4.43;;;;;;;;;;5091975;28;20047;-88
2022/04/06 15:01:46;;;;;;;6.20;4.25;;;10.10;99.90;;;;;;5092182;28;20043;-87
2022/04/06 15:04:33;;;;;;;7.53;4.90;;;;;;;;;;5092191;28;20046;-88
2022/04/06 15:07:21;;;;;;;6.88;4.53;;;10.00;99.90;;;;;;5078371;28;20051;-88
2022/04/06 15:10:10;;;;;;;8.13;5.03;;;9.90;99.90;;;;;;5091227;28;20068;-89
2022/04/06 15:12:59;;;;;;;6.90;5.03;;;9.80;99.90;;;;;;5091905;28;20043;-89
2022/04/06 15:15:44;;;;;;;7.18;4.60;;;;;;;;;;5064132;28;20038;-89
2022/04/06 15:18:36;;;;;;;8.95;4.90;;;;;;;;;;5092071;28;20123;-87
2022/04/06 15:21:36;;;;;;;6.28;4.85;;;9.80;99.90;;;;;;5091956;28;20036;-89
2022/04/06 15:24:21;;;;;;;9.25;5.55;;;;;;;;;;5092109;28;20035;-88
2022/04/06 15:27:19;;;;;;;8.38;4.97;;;9.70;99.90;;;;;;5078107;28;20054;-89
2022/04/06 15:30:05;;;;;;;9.48;5.63;;;9.70;99.90;;;;;;5092663;28;20551;-89
2022/04/06 15:33:08;;;;;;;9.52;5.60;;;;;;;;;;5093732;28;20169;-89
2022/04/06 15:38:57;;;;;;;11.35;6.90;;;;;;;;;;5092848;28;20051;-92
2022/04/06 15:41:43;;;;;;;8.38;5.85;;;;;;;;;;5091847;28;20487;-89
2022/04/06 15:44:27;;;;;;;11.50;6.60;;;;;;;;;;5091924;28;20491;-91
2022/04/06 15:47:12;;;;;;;10.70;5.80;;;;;;;;;;5093436;28;20093;-88
2022/04/06 15:50:19;;;;;;;9.80;6.53;;;9.90;99.90;;;;;;5091613;28;20105;-92
2022/04/06 15:53:06;;;;;;;10.45;6.75;;;9.90;99.90;;;;;;5091660;28;20139;-89
2022/04/06 15:55:53;;;;;;;8.05;6.03;;;;;;;;;;5078140;28;20089;-88
2022/04/06 15:58:47;;;;;;;7.45;5.80;;;9.90;99.90;;;;;;5091537;28;20059;-89